Time;durP1;ratioP1;P1;durP2;ratioP2;P2;SDS_P1;SDS_P2;PMS_P1;PMS_P2;Temp;Humidity;BMP_temperature;BMP_pressure;BME280_temperature;BME280_humidity;BME280_pressure;Samples;Min_cycle;Max_cycle;Signal;HPM_P1;HPM_P2
2022/04/15 00:00:29;;;;;;;12.57;6.90;;;6.60;99.90;;;;;;5050690;28;20119;-70
2022/04/15 00:02:55;;;;;;;14.55;6.22;;;6.60;99.90;;;;;;5049023;28;20049;-69
2022/04/15 00:05:34;;;;;;;13.45;6.28;;;6.70;99.90;;;;;;5067990;28;20036;-70
2022/04/15 00:08:00;;;;;;;13.38;6.57;;;6.70;99.90;;;;;;5049427;28;20042;-69
2022/04/15 00:10:28;;;;;;;11.30;6.35;;;6.80;99.90;;;;;;5066010;28;20044;-69
2022/04/15 00:12:57;;;;;;;13.38;5.90;;;6.90;99.90;;;;;;5056973;28;20044;-69
2022/04/15 00:15:24;;;;;;;15.80;5.90;;;6.90;99.90;;;;;;5049247;28;20047;-70
2022/04/15 00:17:50;;;;;;;16.73;6.30;;;6.90;99.90;;;;;;5066798;28;20435;-69
2022/04/15 00:20:16;;;;;;;13.35;6.18;;;7.00;99.90;;;;;;5063593;28;20056;-70
2022/04/15 00:22:42;;;;;;;12.77;6.15;;;7.00;99.90;;;;;;5022502;28;20044;-70
2022/04/15 00:25:10;;;;;;;17.30;5.72;;;7.00;99.90;;;;;;5066803;28;20032;-69
2022/04/15 00:27:37;;;;;;;14.10;6.35;;;7.00;99.90;;;;;;5040216;28;20120;-69
2022/04/15 00:30:05;;;;;;;10.98;6.15;;;7.10;99.90;;;;;;5048778;28;20045;-69
2022/04/15 00:32:30;;;;;;;14.52;5.95;;;7.10;99.90;;;;;;5047959;28;20040;-69
2022/04/15 00:34:56;;;;;;;15.25;5.95;;;7.10;99.90;;;;;;5048471;28;20102;-69
2022/04/15 00:37:23;;;;;;;11.38;5.55;;;7.10;99.90;;;;;;5047474;28;20032;-69
2022/04/15 00:39:49;;;;;;;12.73;6.38;;;7.10;99.90;;;;;;5066356;28;20083;-70
2022/04/15 00:42:15;;;;;;;15.75;6.03;;;7.20;99.90;;;;;;5047994;28;20562;-69
2022/04/15 00:44:43;;;;;;;10.73;5.63;;;7.20;99.90;;;;;;5048813;28;20036;-70
2022/04/15 00:47:18;;;;;;;14.30;5.65;;;7.20;99.90;;;;;;5066201;28;20115;-69
2022/04/15 00:49:44;;;;;;;13.25;6.65;;;7.20;99.90;;;;;;5066649;28;20051;-69
2022/04/15 00:52:12;;;;;;;14.50;5.97;;;7.30;99.90;;;;;;5031998;28;20040;-69
2022/04/15 00:54:39;;;;;;;10.98;5.47;;;7.30;99.90;;;;;;5047822;28;20044;-69
2022/04/15 00:57:09;;;;;;;12.40;6.25;;;7.30;99.90;;;;;;5066098;28;20292;-69
2022/04/15 00:59:38;;;;;;;17.00;6.25;;;7.40;99.90;;;;;;5048901;28;20056;-70
2022/04/15 01:02:04;;;;;;;13.07;5.90;;;7.50;99.90;;;;;;5039017;28;20401;-69
2022/04/15 01:04:31;;;;;;;14.93;6.35;;;7.40;99.90;;;;;;5066750;28;20086;-70
2022/04/15 01:07:01;;;;;;;18.85;6.78;;;7.40;99.90;;;;;;5048507;28;20119;-70
2022/04/15 01:09:31;;;;;;;17.17;6.28;;;7.50;99.90;;;;;;5053308;28;20066;-70
2022/04/15 01:11:58;;;;;;;17.77;6.82;;;7.50;99.90;;;;;;5066371;28;20356;-69
2022/04/15 01:14:25;;;;;;;15.70;6.22;;;7.60;99.90;;;;;;5047980;28;20044;-70
2022/04/15 01:16:51;;;;;;;17.23;6.72;;;7.50;99.90;;;;;;5048604;28;20059;-69
2022/04/15 01:19:17;;;;;;;15.20;6.68;;;7.90;99.90;;;;;;5065651;28;20048;-69
2022/04/15 01:21:45;;;;;;;14.82;6.07;;;7.60;99.90;;;;;;5026540;28;20049;-70
2022/04/15 01:24:11;;;;;;;18.67;6.70;;;7.60;99.90;;;;;;5034545;28;20714;-69
2022/04/15 01:26:38;;;;;;;16.73;6.38;;;7.60;99.90;;;;;;5067718;28;20051;-69
2022/04/15 01:29:04;;;;;;;12.48;5.80;;;7.60;99.90;;;;;;5069224;28;20048;-69
2022/04/15 01:31:31;;;;;;;11.65;5.57;;;7.60;99.90;;;;;;5035653;28;20033;-69
2022/04/15 01:33:59;;;;;;;12.55;5.75;;;7.60;99.90;;;;;;5051179;28;20068;-69
2022/04/15 01:36:26;;;;;;;17.08;5.72;;;7.60;99.90;;;;;;5051554;28;20116;-69
2022/04/15 01:38:55;;;;;;;12.32;6.00;;;7.70;99.90;;;;;;5068648;28;20050;-69
2022/04/15 01:41:22;;;;;;;13.60;6.15;;;7.70;99.90;;;;;;5052658;28;20417;-69
2022/04/15 01:43:48;;;;;;;17.58;6.43;;;7.70;99.90;;;;;;5069466;28;20040;-69
2022/04/15 01:46:14;;;;;;;12.90;6.35;;;7.70;99.90;;;;;;5070089;28;20044;-70
2022/04/15 01:48:39;;;;;;;12.55;6.15;;;7.70;99.90;;;;;;5035502;28;20047;-69
2022/04/15 01:51:05;;;;;;;13.35;5.35;;;7.90;99.90;;;;;;5057043;28;20041;-69
2022/04/15 01:53:31;;;;;;;12.20;5.45;;;7.80;99.90;;;;;;5047402;28;20566;-70
2022/04/15 01:55:56;;;;;;;9.88;5.15;;;7.80;99.90;;;;;;5068411;28;20132;-69
2022/04/15 01:58:22;;;;;;;13.10;4.70;;;7.80;99.90;;;;;;5033335;28;20131;-69
2022/04/15 02:00:48;;;;;;;13.52;5.18;;;7.80;99.90;;;;;;5049655;28;20416;-69
2022/04/15 02:03:13;;;;;;;8.82;4.32;;;7.90;99.90;;;;;;5068804;28;20036;-69
2022/04/15 02:05:39;;;;;;;17.45;4.00;;;7.90;99.90;;;;;;5035231;28;20045;-69
2022/04/15 02:08:05;;;;;;;15.50;3.63;;;7.90;99.90;;;;;;5033918;28;20041;-69
2022/04/15 02:10:31;;;;;;;15.45;4.28;;;7.90;99.90;;;;;;5050973;28;20157;-69
2022/04/15 02:12:56;;;;;;;14.68;4.45;;;7.90;99.90;;;;;;5049975;28;20087;-69
2022/04/15 02:15:22;;;;;;;16.45;3.97;;;7.90;99.90;;;;;;5036643;28;20076;-69
2022/04/15 02:17:48;;;;;;;14.15;4.45;;;8.00;99.90;;;;;;5032521;28;20040;-69
2022/04/15 02:20:13;;;;;;;17.85;4.85;;;8.30;99.90;;;;;;5043427;28;20086;-69
2022/04/15 02:22:39;;;;;;;14.23;4.90;;;8.00;99.90;;;;;;5044329;28;20040;-69
2022/04/15 02:25:05;;;;;;;14.00;5.65;;;8.00;99.90;;;;;;5050363;28;20040;-70
2022/04/15 02:27:31;;;;;;;13.82;5.25;;;8.00;99.90;;;;;;5050545;28;20047;-69
2022/04/15 02:29:57;;;;;;;16.50;5.82;;;8.20;99.90;;;;;;5069305;28;20040;-70
2022/04/15 02:32:23;;;;;;;17.45;5.90;;;8.00;99.90;;;;;;5050412;28;20036;-70
2022/04/15 02:34:49;;;;;;;17.55;6.22;;;8.00;99.90;;;;;;5034911;28;20056;-70
2022/04/15 02:37:15;;;;;;;15.93;6.53;;;8.50;99.90;;;;;;5048331;28;20477;-69
2022/04/15 02:39:43;;;;;;;18.73;7.20;;;8.00;99.90;;;;;;5069177;28;20091;-70
2022/04/15 02:42:09;;;;;;;16.92;6.40;;;8.00;99.90;;;;;;5067910;28;20449;-69
2022/04/15 02:44:37;;;;;;;18.85;7.25;;;8.00;99.90;;;;;;5048919;28;20477;-69
2022/04/15 02:47:03;;;;;;;18.98;7.15;;;8.10;99.90;;;;;;5049342;28;20045;-70
2022/04/15 02:49:30;;;;;;;19.38;8.02;;;8.00;99.90;;;;;;5066699;28;20079;-69
2022/04/15 02:51:56;;;;;;;17.73;7.38;;;8.00;99.90;;;;;;5048868;28;20079;-69
2022/04/15 02:54:23;;;;;;;15.52;7.60;;;8.00;99.90;;;;;;5050322;28;20037;-69
2022/04/15 02:56:49;;;;;;;20.20;7.82;;;8.00;99.90;;;;;;5029104;28;20410;-69
2022/04/15 02:59:16;;;;;;;20.25;7.72;;;8.00;99.90;;;;;;5034810;28;20036;-69
2022/04/15 03:01:43;;;;;;;17.55;7.97;;;8.00;99.90;;;;;;5029507;28;20409;-69
2022/04/15 03:04:09;;;;;;;19.92;9.48;;;7.60;99.90;;;;;;5046154;28;20076;-70
2022/04/15 03:06:35;;;;;;;26.58;11.45;;;8.00;99.90;;;;;;5047416;28;20037;-70
2022/04/15 03:09:00;;;;;;;24.08;12.55;;;8.10;99.90;;;;;;5046053;28;20422;-70
2022/04/15 03:11:26;;;;;;;25.23;14.25;;;8.00;99.90;;;;;;5045682;28;20044;-69
2022/04/15 03:13:52;;;;;;;24.48;14.55;;;8.00;99.90;;;;;;5046598;28;20360;-70
2022/04/15 03:16:17;;;;;;;31.48;15.70;;;8.00;99.90;;;;;;5030565;28;20040;-70
2022/04/15 03:18:43;;;;;;;25.10;15.85;;;8.00;99.90;;;;;;5029733;28;20048;-70
2022/04/15 03:21:09;;;;;;;23.27;14.88;;;8.00;99.90;;;;;;5045638;28;20048;-70
2022/04/15 03:23:35;;;;;;;21.92;14.70;;;8.00;99.90;;;;;;5047944;28;20511;-70
2022/04/15 03:26:00;;;;;;;24.00;15.18;;;8.00;99.90;;;;;;5044872;28;20147;-69
2022/04/15 03:28:26;;;;;;;21.35;14.18;;;7.90;99.90;;;;;;5047694;28;20049;-69
2022/04/15 03:30:52;;;;;;;23.83;14.27;;;7.90;99.90;;;;;;5048698;28;20037;-69
2022/04/15 03:33:17;;;;;;;22.85;12.98;;;7.90;99.90;;;;;;5045896;28;20049;-70
2022/04/15 03:35:43;;;;;;;18.70;11.98;;;7.90;99.90;;;;;;5046899;28;20425;-70
2022/04/15 03:38:08;;;;;;;18.98;11.75;;;8.20;99.90;;;;;;5028799;28;20043;-70
2022/04/15 03:40:34;;;;;;;15.63;9.70;;;7.80;99.90;;;;;;5044018;28;20393;-70
2022/04/15 03:43:00;;;;;;;12.20;8.00;;;7.80;99.90;;;;;;5046970;28;20300;-70
2022/04/15 03:45:26;;;;;;;11.30;7.68;;;7.80;99.90;;;;;;5044689;28;20504;-70
2022/04/15 03:47:56;;;;;;;16.70;7.90;;;7.80;99.90;;;;;;5047022;28;20064;-69
2022/04/15 03:50:22;;;;;;;11.68;6.70;;;7.70;99.90;;;;;;5028582;28;20448;-69
2022/04/15 03:52:49;;;;;;;10.02;6.38;;;7.70;99.90;;;;;;5047800;28;20413;-69
2022/04/15 03:55:18;;;;;;;11.93;5.68;;;7.70;99.90;;;;;;5042816;28;20044;-69
2022/04/15 03:57:44;;;;;;;8.68;5.90;;;7.60;99.90;;;;;;5022799;28;20056;-69
2022/04/15 04:00:14;;;;;;;9.95;5.78;;;7.60;99.90;;;;;;5047749;28;20416;-71
2022/04/15 04:02:48;;;;;;;12.75;5.55;;;7.60;99.90;;;;;;5048147;28;20095;-69
2022/04/15 04:05:14;;;;;;;10.32;6.30;;;7.50;99.90;;;;;;5047459;28;20389;-69
2022/04/15 04:07:44;;;;;;;11.27;6.20;;;7.50;99.90;;;;;;5047906;28;20051;-69
2022/04/15 04:10:12;;;;;;;9.80;5.95;;;7.50;99.90;;;;;;5064465;28;20540;-70
2022/04/15 04:12:38;;;;;;;9.27;5.65;;;7.50;99.90;;;;;;5065857;28;20389;-69
2022/04/15 04:15:05;;;;;;;11.15;5.93;;;7.50;99.90;;;;;;5048149;28;20048;-69
2022/04/15 04:17:32;;;;;;;9.45;5.65;;;7.40;99.90;;;;;;5047891;28;20059;-70
2022/04/15 04:19:58;;;;;;;9.27;5.78;;;7.90;99.90;;;;;;5063852;28;20037;-69
2022/04/15 04:22:33;;;;;;;10.00;5.60;;;7.40;99.90;;;;;;5045955;28;20036;-69
2022/04/15 04:24:59;;;;;;;8.55;5.32;;;7.40;99.90;;;;;;5047804;28;20032;-69
2022/04/15 04:27:24;;;;;;;10.65;5.68;;;7.40;99.90;;;;;;5065506;28;20117;-69
2022/04/15 04:29:51;;;;;;;10.90;5.72;;;7.40;99.90;;;;;;5065055;28;20475;-69
2022/04/15 04:32:18;;;;;;;8.57;5.20;;;7.40;99.90;;;;;;5064137;28;20056;-70
2022/04/15 04:34:44;;;;;;;9.13;4.93;;;7.40;99.90;;;;;;5042822;28;20071;-69
2022/04/15 04:37:10;;;;;;;8.30;4.50;;;7.30;99.90;;;;;;5065230;28;20075;-69
2022/04/15 04:39:36;;;;;;;7.68;4.60;;;7.30;99.90;;;;;;5046940;28;20041;-69
2022/04/15 04:42:05;;;;;;;8.93;4.22;;;7.40;99.90;;;;;;5043979;28;20067;-70
2022/04/15 04:44:31;;;;;;;8.38;3.92;;;7.30;99.90;;;;;;5045941;28;20440;-70
2022/04/15 04:46:58;;;;;;;7.22;3.30;;;7.30;99.90;;;;;;5047384;28;20049;-70
2022/04/15 04:49:24;;;;;;;5.43;2.97;;;7.30;99.90;;;;;;5046888;28;20568;-70
2022/04/15 04:51:50;;;;;;;4.97;2.60;;;7.30;99.90;;;;;;5047714;28;20123;-70
2022/04/15 04:54:15;;;;;;;6.80;2.53;;;7.20;99.90;;;;;;5031942;28;20517;-70
2022/04/15 04:56:41;;;;;;;7.13;2.70;;;7.30;99.90;;;;;;5049214;28;20095;-70
2022/04/15 04:59:07;;;;;;;7.70;2.80;;;7.20;99.90;;;;;;5026625;28;20040;-70
2022/04/15 05:01:32;;;;;;;7.30;3.25;;;7.20;99.90;;;;;;5064434;28;20475;-70
2022/04/15 05:03:58;;;;;;;5.90;3.33;;;7.20;99.90;;;;;;5049128;28;20414;-70
2022/04/15 05:06:24;;;;;;;6.40;2.83;;;7.20;99.90;;;;;;5072245;28;20055;-70
2022/04/15 05:08:50;;;;;;;5.82;2.67;;;7.10;99.90;;;;;;5049016;28;20041;-69
2022/04/15 05:11:16;;;;;;;8.68;3.78;;;7.20;99.90;;;;;;5063416;28;20551;-70
2022/04/15 05:13:42;;;;;;;9.40;3.88;;;7.20;99.90;;;;;;5071048;28;20100;-70
2022/04/15 05:16:08;;;;;;;7.05;3.10;;;7.20;99.90;;;;;;5069904;28;20170;-69
2022/04/15 05:18:34;;;;;;;7.03;3.03;;;7.20;99.90;;;;;;5068710;28;20050;-70
2022/04/15 05:21:00;;;;;;;7.75;2.90;;;7.20;99.90;;;;;;5069108;28;20053;-69
2022/04/15 05:23:26;;;;;;;6.65;2.50;;;7.10;99.90;;;;;;5050316;28;20048;-70
2022/04/15 05:25:52;;;;;;;6.57;2.70;;;7.10;99.90;;;;;;5070210;28;20044;-70
2022/04/15 05:28:18;;;;;;;8.15;3.10;;;7.10;99.90;;;;;;5051479;28;20044;-70
2022/04/15 05:30:44;;;;;;;9.32;2.75;;;7.10;99.90;;;;;;5041712;28;20493;-70
2022/04/15 05:33:09;;;;;;;6.35;3.28;;;7.10;99.90;;;;;;5067293;28;20080;-70
2022/04/15 05:35:35;;;;;;;8.88;3.20;;;7.20;99.90;;;;;;5052524;28;20048;-70
2022/04/15 05:38:01;;;;;;;6.18;2.83;;;7.10;99.90;;;;;;5049515;28;20109;-69
2022/04/15 05:40:28;;;;;;;8.73;3.20;;;7.10;99.90;;;;;;5068256;28;20466;-69
2022/04/15 05:42:54;;;;;;;7.30;3.75;;;7.10;99.90;;;;;;5046210;28;20523;-69
2022/04/15 05:45:19;;;;;;;8.32;3.70;;;7.10;99.90;;;;;;5043408;28;20071;-70
2022/04/15 05:47:45;;;;;;;10.20;3.90;;;7.00;99.90;;;;;;5049936;28;20040;-70
2022/04/15 05:50:11;;;;;;;8.27;3.83;;;7.10;99.90;;;;;;5040835;28;20734;-71
2022/04/15 05:52:36;;;;;;;13.98;4.80;;;7.10;99.90;;;;;;5030312;28;20080;-70
2022/04/15 05:55:02;;;;;;;10.35;4.38;;;7.70;99.90;;;;;;5031142;28;20524;-69
2022/04/15 05:57:28;;;;;;;8.93;3.85;;;7.10;99.90;;;;;;5050794;28;20602;-71
2022/04/15 05:59:54;;;;;;;7.88;4.15;;;7.10;99.90;;;;;;5033163;28;20051;-70
2022/04/15 06:02:19;;;;;;;8.93;4.38;;;7.10;99.90;;;;;;5051809;28;20044;-70
2022/04/15 06:04:45;;;;;;;8.85;4.35;;;7.10;99.90;;;;;;5027856;28;20093;-70
2022/04/15 06:07:11;;;;;;;8.38;4.65;;;7.10;99.90;;;;;;5032859;28;20048;-70
2022/04/15 06:09:36;;;;;;;12.02;4.78;;;7.10;99.90;;;;;;5043373;28;20036;-71
2022/04/15 06:12:02;;;;;;;9.10;5.00;;;7.10;99.90;;;;;;5054771;28;20129;-71
2022/04/15 06:14:33;;;;;;;10.05;4.97;;;7.10;99.90;;;;;;5018286;28;20493;-70
2022/04/15 06:16:59;;;;;;;9.02;4.80;;;7.10;99.90;;;;;;5039309;28;20052;-69
2022/04/15 06:19:25;;;;;;;9.68;4.82;;;7.10;99.90;;;;;;5057198;28;20048;-70
2022/04/15 06:21:53;;;;;;;11.07;5.75;;;7.10;99.90;;;;;;5041934;28;20586;-69
2022/04/15 06:24:19;;;;;;;8.93;5.32;;;7.10;99.90;;;;;;5034477;28;20040;-70
2022/04/15 06:26:45;;;;;;;9.85;5.50;;;7.20;99.90;;;;;;5041747;28;20519;-70
2022/04/15 06:29:11;;;;;;;10.88;5.72;;;7.20;99.90;;;;;;5043650;28;20132;-69
2022/04/15 06:31:36;;;;;;;12.80;6.38;;;7.30;99.90;;;;;;5042856;28;20434;-69
2022/04/15 06:34:03;;;;;;;10.73;6.78;;;7.30;99.90;;;;;;5041578;28;20053;-70
2022/04/15 06:36:29;;;;;;;14.00;6.97;;;7.30;99.90;;;;;;5063061;28;20044;-71
2022/04/15 06:38:54;;;;;;;13.70;6.68;;;7.40;99.90;;;;;;5045525;28;20105;-70
2022/04/15 06:41:20;;;;;;;10.93;7.63;;;7.40;99.90;;;;;;5064239;28;20040;-70
2022/04/15 06:43:45;;;;;;;12.95;7.13;;;7.40;99.90;;;;;;5028420;28;20582;-69
2022/04/15 06:46:11;;;;;;;12.23;7.40;;;7.50;99.90;;;;;;5062773;28;20039;-70
2022/04/15 06:48:37;;;;;;;13.02;7.13;;;7.50;99.90;;;;;;5048080;28;20044;-70
2022/04/15 06:51:03;;;;;;;16.58;8.48;;;7.50;99.90;;;;;;5066054;28;20068;-70
2022/04/15 06:53:29;;;;;;;16.10;8.82;;;7.60;99.90;;;;;;5061413;28;20134;-71
2022/04/15 06:55:54;;;;;;;13.73;8.40;;;7.60;99.90;;;;;;5022474;28;1177222;-71
2022/04/15 06:58:20;;;;;;;15.35;8.15;;;7.60;99.90;;;;;;5042997;28;20055;-68
2022/04/15 07:00:46;;;;;;;14.82;8.68;;;7.60;99.90;;;;;;5045045;28;20135;-70
2022/04/15 07:03:13;;;;;;;17.45;9.38;;;7.70;99.90;;;;;;5059735;28;20487;-69
2022/04/15 07:05:39;;;;;;;17.77;9.18;;;7.70;99.90;;;;;;5046366;28;20451;-70
2022/04/15 07:08:09;;;;;;;19.73;9.48;;;7.70;99.90;;;;;;5029551;28;20067;-69
2022/04/15 07:10:36;;;;;;;16.13;8.95;;;7.80;99.90;;;;;;5048517;28;20048;-70
2022/04/15 07:13:02;;;;;;;15.75;9.32;;;7.80;99.90;;;;;;5047821;28;20052;-71
2022/04/15 07:15:28;;;;;;;17.70;9.55;;;7.90;99.90;;;;;;5046527;28;20059;-70
2022/04/15 07:17:55;;;;;;;19.58;9.50;;;7.90;99.90;;;;;;5044827;28;20086;-70
2022/04/15 07:20:21;;;;;;;19.42;10.55;;;7.90;99.90;;;;;;5048860;28;20044;-70
2022/04/15 07:22:47;;;;;;;18.20;9.63;;;8.00;99.90;;;;;;5068625;28;20420;-70
2022/04/15 07:25:13;;;;;;;21.95;10.05;;;8.00;99.90;;;;;;5058258;28;20041;-70
2022/04/15 07:27:38;;;;;;;23.75;9.80;;;8.20;99.90;;;;;;5045580;28;20075;-70
2022/04/15 07:30:05;;;;;;;20.48;9.48;;;8.40;99.90;;;;;;5059677;28;20516;-70
2022/04/15 07:32:31;;;;;;;21.13;10.30;;;8.60;99.90;;;;;;5042889;28;20040;-70
2022/04/15 07:34:57;;;;;;;19.10;9.63;;;8.70;99.90;;;;;;5043208;28;20036;-69
2022/04/15 07:37:22;;;;;;;18.98;9.00;;;8.90;99.90;;;;;;5035498;28;20178;-71
2022/04/15 07:39:48;;;;;;;21.25;8.57;;;9.00;99.90;;;;;;5045598;28;20033;-71
2022/04/15 07:42:14;;;;;;;16.90;7.97;;;8.90;99.90;;;;;;5038701;28;20081;-71
2022/04/15 07:44:44;;;;;;;19.95;7.38;;;8.90;99.90;;;;;;5040686;28;20178;-70
2022/04/15 07:47:10;;;;;;;18.87;7.60;;;8.80;99.90;;;;;;5022822;28;20485;-71
2022/04/15 07:49:36;;;;;;;16.50;7.28;;;8.70;99.90;;;;;;5039499;28;20076;-71
2022/04/15 07:52:06;;;;;;;12.45;6.35;;;8.70;99.90;;;;;;5037504;28;20188;-70
2022/04/15 07:54:33;;;;;;;15.35;6.70;;;8.70;99.90;;;;;;5026870;28;20105;-69
2022/04/15 07:57:00;;;;;;;16.30;6.68;;;8.70;99.90;;;;;;5027564;28;20225;-70
2022/04/15 07:59:25;;;;;;;17.05;5.45;;;8.70;99.90;;;;;;5040294;28;20051;-70
2022/04/15 08:01:54;;;;;;;13.10;6.32;;;8.70;99.90;;;;;;5044414;28;20044;-70
2022/04/15 08:04:20;;;;;;;18.30;6.80;;;8.70;99.90;;;;;;5047130;28;20032;-69
2022/04/15 08:06:46;;;;;;;13.00;6.60;;;8.70;99.90;;;;;;5043268;28;20076;-69
2022/04/15 08:09:12;;;;;;;14.80;6.13;;;8.70;99.90;;;;;;5058797;28;20555;-70
2022/04/15 08:11:37;;;;;;;13.27;5.18;;;8.70;99.90;;;;;;5044783;28;20405;-69
2022/04/15 08:14:03;;;;;;;13.77;5.07;;;8.70;99.90;;;;;;5041763;28;20072;-70
2022/04/15 08:16:29;;;;;;;12.07;5.10;;;8.70;99.90;;;;;;5064760;28;20028;-69
2022/04/15 08:18:57;;;;;;;12.55;5.00;;;8.60;99.90;;;;;;5063520;28;20420;-70
2022/04/15 08:21:23;;;;;;;10.55;5.18;;;8.70;99.90;;;;;;5026638;28;20401;-70
2022/04/15 08:23:49;;;;;;;15.80;5.13;;;8.80;99.90;;;;;;5041986;28;20036;-70
2022/04/15 08:26:15;;;;;;;15.15;5.50;;;8.90;99.90;;;;;;5044519;28;20090;-70
2022/04/15 08:28:41;;;;;;;12.40;5.70;;;9.00;99.90;;;;;;5062665;28;20055;-75
2022/04/15 08:31:07;;;;;;;15.98;5.80;;;9.20;99.90;;;;;;5063077;28;20135;-75
2022/04/15 08:33:34;;;;;;;22.02;5.80;;;9.40;99.90;;;;;;5061202;28;20360;-75
2022/04/15 08:36:00;;;;;;;15.05;5.75;;;9.70;99.90;;;;;;5044970;28;20508;-74
2022/04/15 08:38:26;;;;;;;17.67;5.65;;;10.00;99.90;;;;;;5061614;28;20644;-75
2022/04/15 08:40:56;;;;;;;14.82;5.88;;;10.50;99.90;;;;;;5060993;28;20273;-76
2022/04/15 08:43:24;;;;;;;10.38;4.97;;;11.00;99.90;;;;;;5044766;28;20037;-75
2022/04/15 08:45:50;;;;;;;12.32;4.53;;;11.40;99.90;;;;;;5043527;28;20041;-74
2022/04/15 08:48:16;;;;;;;10.65;4.47;;;11.70;99.90;;;;;;5057264;28;20114;-75
2022/04/15 08:50:42;;;;;;;10.77;4.43;;;11.80;99.90;;;;;;5022565;28;20501;-76
2022/04/15 08:53:08;;;;;;;9.68;4.50;;;11.80;99.90;;;;;;5040292;28;20535;-75
2022/04/15 08:55:34;;;;;;;14.63;5.25;;;11.60;99.90;;;;;;5043578;28;20044;-76
2022/04/15 08:58:00;;;;;;;13.18;5.07;;;11.40;99.90;;;;;;5062081;28;20059;-77
2022/04/15 09:00:26;;;;;;;12.15;5.45;;;11.20;99.90;;;;;;5044147;28;20062;-76
2022/04/15 09:02:54;;;;;;;10.43;4.70;;;11.00;99.90;;;;;;5058390;28;20048;-76
2022/04/15 09:05:22;;;;;;;10.38;4.80;;;10.80;99.90;;;;;;5063184;28;20052;-75
2022/04/15 09:07:48;;;;;;;12.98;4.80;;;10.60;99.90;;;;;;5063525;28;20064;-75
2022/04/15 09:10:16;;;;;;;15.52;5.32;;;10.50;99.90;;;;;;5029529;28;20052;-75
2022/04/15 09:12:42;;;;;;;8.82;4.30;;;10.40;99.90;;;;;;5048072;28;20072;-72
2022/04/15 09:15:08;;;;;;;15.55;4.70;;;10.50;99.90;;;;;;5029853;28;20090;-75
2022/04/15 09:17:42;;;;;;;9.85;4.45;;;10.40;99.90;;;;;;5063393;28;20036;-77
2022/04/15 09:20:11;;;;;;;10.63;4.18;;;10.80;99.90;;;;;;5041310;28;20122;-75
2022/04/15 09:22:37;;;;;;;12.95;3.95;;;11.20;99.90;;;;;;5033719;28;20040;-75
2022/04/15 09:25:04;;;;;;;12.88;4.47;;;11.60;99.90;;;;;;5026791;28;20443;-75
2022/04/15 09:27:30;;;;;;;11.55;3.63;;;11.90;99.90;;;;;;5046890;28;20037;-75
2022/04/15 09:29:56;;;;;;;9.15;3.92;;;12.30;99.90;;;;;;5026861;28;20059;-75
2022/04/15 09:32:24;;;;;;;10.55;4.20;;;12.40;99.90;;;;;;5044081;28;20083;-75
2022/04/15 09:35:07;;;;;;;7.70;4.38;;;12.20;99.90;;;;;;5047657;28;20568;-74
2022/04/15 09:37:44;;;;;;;8.70;4.57;;;11.90;99.90;;;;;;5027335;28;20463;-71
2022/04/15 09:40:14;;;;;;;10.20;4.65;;;11.30;99.90;;;;;;5044460;28;20037;-71
2022/04/15 09:42:47;;;;;;;10.70;5.07;;;11.10;99.90;;;;;;5029504;28;20439;-71
2022/04/15 09:45:39;;;;;;;10.38;4.70;;;10.90;99.90;;;;;;5045374;28;20040;-75
2022/04/15 09:48:11;;;;;;;11.30;5.13;;;11.10;99.90;;;;;;5028058;28;20099;-75
2022/04/15 09:50:42;;;;;;;16.27;5.45;;;11.30;99.90;;;;;;5049514;28;20461;-77
2022/04/15 09:53:17;;;;;;;11.40;4.95;;;11.50;99.90;;;;;;5065345;28;20123;-74
2022/04/15 09:55:46;;;;;;;12.68;5.00;;;11.40;99.90;;;;;;5043759;28;20041;-72
2022/04/15 09:58:13;;;;;;;10.38;5.10;;;11.30;99.90;;;;;;5031359;28;20057;-72
2022/04/15 10:00:40;;;;;;;10.95;4.80;;;11.20;99.90;;;;;;5030813;28;20045;-74
2022/04/15 10:03:08;;;;;;;9.10;4.47;;;11.30;99.90;;;;;;5048093;28;20524;-73
2022/04/15 10:05:36;;;;;;;19.20;6.20;;;11.10;99.90;;;;;;5060529;28;20123;-74
2022/04/15 10:08:03;;;;;;;10.77;4.90;;;11.30;99.90;;;;;;5049008;28;20377;-73
2022/04/15 10:10:30;;;;;;;11.70;5.32;;;11.40;99.90;;;;;;5067606;28;20037;-74
2022/04/15 10:13:00;;;;;;;14.23;5.38;;;11.50;99.90;;;;;;5065518;28;20124;-73
2022/04/15 10:15:26;;;;;;;12.55;5.00;;;11.30;99.90;;;;;;5068318;28;20152;-74
2022/04/15 10:17:52;;;;;;;12.45;5.05;;;11.20;99.90;;;;;;5030279;28;20512;-74
2022/04/15 10:20:18;;;;;;;9.40;4.90;;;11.00;99.90;;;;;;5044705;28;20037;-72
2022/04/15 10:22:45;;;;;;;9.57;4.35;;;10.90;99.90;;;;;;5053869;28;20063;-74
2022/04/15 10:25:11;;;;;;;10.85;4.35;;;10.80;99.90;;;;;;5036961;28;20405;-71
2022/04/15 10:27:38;;;;;;;9.20;4.70;;;10.90;99.90;;;;;;5044068;28;20048;-71
2022/04/15 10:30:21;;;;;;;11.35;6.18;;;10.90;99.90;;;;;;5070912;28;20039;-71
2022/04/15 10:32:52;;;;;;;11.63;5.60;;;10.90;99.90;;;;;;5061758;28;20440;-71
2022/04/15 10:35:25;;;;;;;9.63;4.80;;;10.90;99.90;;;;;;5038651;28;20044;-71
2022/04/15 10:37:57;;;;;;;11.98;4.75;;;11.00;99.90;;;;;;5038545;28;20068;-72
2022/04/15 10:40:34;;;;;;;12.88;5.35;;;11.00;99.90;;;;;;5040310;28;20053;-71
2022/04/15 10:43:25;;;;;;;11.43;4.50;;;11.00;99.90;;;;;;5077384;28;20041;-70
2022/04/15 10:46:10;;;;;;;12.05;4.63;;;11.00;99.90;;;;;;5061109;28;20036;-71
2022/04/15 10:48:37;;;;;;;9.40;4.25;;;11.00;99.90;;;;;;5055604;28;20733;-71
2022/04/15 10:51:26;;;;;;;11.70;5.05;;;11.00;99.90;;;;;;5039709;28;20622;-71
2022/04/15 10:53:55;;;;;;;11.30;5.00;;;10.80;99.90;;;;;;5040861;28;20071;-72
2022/04/15 10:56:23;;;;;;;13.27;4.80;;;10.60;99.90;;;;;;5055682;28;20052;-71
2022/04/15 11:01:56;;;;;;;10.55;4.95;;;10.50;99.90;;;;;;5038503;28;20053;-72
2022/04/15 11:04:26;;;;;;;11.52;4.90;;;10.60;99.90;;;;;;5043754;28;20147;-71
2022/04/15 11:06:54;;;;;;;12.98;4.93;;;10.40;99.90;;;;;;5043232;28;20043;-71
2022/04/15 11:09:26;;;;;;;13.00;5.47;;;10.30;99.90;;;;;;5037240;28;20746;-72
2022/04/15 11:11:53;;;;;;;13.07;5.20;;;10.20;99.90;;;;;;5049536;28;20082;-72
2022/04/15 11:14:34;;;;;;;11.20;5.10;;;10.20;99.90;;;;;;5056615;28;20052;-70
2022/04/15 11:17:00;;;;;;;14.02;4.97;;;10.20;99.90;;;;;;5047589;28;20071;-72
2022/04/15 11:19:26;;;;;;;11.15;5.78;;;10.30;99.90;;;;;;5046967;28;20528;-71
2022/04/15 11:21:54;;;;;;;14.35;5.80;;;10.30;99.90;;;;;;5055572;28;20079;-71
2022/04/15 11:24:32;;;;;;;10.57;5.05;;;10.30;99.90;;;;;;5035555;28;20040;-71
2022/04/15 11:27:03;;;;;;;12.02;5.65;;;10.30;99.90;;;;;;5049578;28;20063;-71
2022/04/15 11:29:34;;;;;;;13.43;6.05;;;10.30;99.90;;;;;;5047436;28;20464;-71
2022/04/15 11:32:05;;;;;;;11.85;5.63;;;10.20;99.90;;;;;;5047105;28;20078;-72
2022/04/15 11:34:33;;;;;;;10.02;5.22;;;10.20;99.90;;;;;;5052073;28;20049;-73
2022/04/15 11:37:05;;;;;;;9.57;5.00;;;10.30;99.90;;;;;;5041898;28;20131;-72
2022/04/15 11:39:35;;;;;;;10.07;4.80;;;10.40;99.90;;;;;;5023938;28;20093;-73
2022/04/15 11:42:05;;;;;;;10.95;5.20;;;10.40;99.90;;;;;;5031636;28;20052;-73
2022/04/15 11:44:32;;;;;;;11.95;5.30;;;10.60;99.90;;;;;;5034207;28;20052;-72
2022/04/15 11:49:45;;;;;;;13.77;5.07;;;10.60;99.90;;;;;;5038330;28;20761;-73
2022/04/15 11:52:28;;;;;;;12.07;5.88;;;10.50;99.90;;;;;;5042245;28;20257;-72
2022/04/15 11:54:55;;;;;;;11.38;5.63;;;10.80;99.90;;;;;;5043169;28;20379;-73
2022/04/15 11:57:21;;;;;;;11.98;5.53;;;10.40;99.90;;;;;;5026047;28;20053;-73
2022/04/15 11:59:48;;;;;;;10.73;4.90;;;10.50;99.90;;;;;;5024388;28;20072;-73
2022/04/15 12:02:15;;;;;;;9.43;4.88;;;10.50;99.90;;;;;;5044021;28;20482;-73
2022/04/15 12:04:52;;;;;;;9.95;4.90;;;10.50;99.90;;;;;;5039853;28;20037;-73
2022/04/15 12:07:19;;;;;;;11.18;4.95;;;10.60;99.90;;;;;;5034565;28;20502;-73
2022/04/15 12:09:45;;;;;;;9.70;4.53;;;10.60;99.90;;;;;;5015727;28;20037;-73
2022/04/15 12:12:11;;;;;;;11.55;5.05;;;10.60;99.90;;;;;;5018242;28;20053;-73
2022/04/15 12:14:39;;;;;;;11.45;5.57;;;10.50;99.90;;;;;;5022042;28;20159;-73
2022/04/15 12:17:11;;;;;;;13.05;5.25;;;10.50;99.90;;;;;;5038607;28;20102;-74
2022/04/15 12:19:38;;;;;;;10.48;4.50;;;10.50;99.90;;;;;;5036558;28;20044;-73
2022/04/15 12:22:05;;;;;;;10.05;4.97;;;10.50;99.90;;;;;;5037232;28;20051;-73
2022/04/15 12:24:31;;;;;;;11.57;5.20;;;10.50;99.90;;;;;;5039780;28;20048;-73
2022/04/15 12:27:00;;;;;;;9.18;4.63;;;10.50;99.90;;;;;;5036935;28;20037;-73
2022/04/15 12:32:17;;;;;;;10.80;4.72;;;10.50;99.90;;;;;;5037469;28;20578;-73
2022/04/15 12:34:47;;;;;;;8.90;4.55;;;10.50;99.90;;;;;;5021168;28;20083;-73
2022/04/15 12:37:36;;;;;;;15.13;5.05;;;10.50;99.90;;;;;;5038099;28;20135;-73
2022/04/15 12:40:03;;;;;;;12.50;5.25;;;10.50;99.90;;;;;;5037979;28;20045;-73
2022/04/15 12:42:30;;;;;;;12.00;5.07;;;10.40;99.90;;;;;;5038142;28;20041;-73
2022/04/15 12:44:57;;;;;;;14.25;5.40;;;10.30;99.90;;;;;;5037070;28;20049;-74
2022/04/15 12:47:27;;;;;;;14.88;5.10;;;10.30;99.90;;;;;;5036839;28;20075;-73
2022/04/15 12:49:54;;;;;;;13.07;5.10;;;10.20;99.90;;;;;;5022295;28;20052;-72
2022/04/15 12:52:21;;;;;;;13.57;5.38;;;10.20;99.90;;;;;;5022600;28;20052;-73
2022/04/15 12:55:07;;;;;;;12.98;5.93;;;10.20;99.90;;;;;;5039414;28;20040;-73